Detall de PIREP

Printer-friendly versionPDF version

[2010/10/09 15:21:00]
Flight IATA:CT1006
Pilot Number:026
Company ICAO:CAT
Aircraft Type:DC85/A
PAX:136
Departing Airport: LEAL
Destination Airport: LICJ
Alternate Airport:LMML
Online: VATSIM
Route:MITOS2A /10 MITOS/N0330F260 UN851 MHN UM603 MORSS/N0330F250 UM603 ARSIK UM731 TEKSA UM732 CAR UM871 KAPIL
Flight Level:FL310
No Slew and time accel
No pause
Crash detect
Detect pilot in Cockpit between each 30 and 45 minutes
15:21 Zero fuel Weight: 185719 Lbs, Fuel Weight: 35288 Lbs
15:21 VATSIM:LEAL 091400Z 08011KT 9999 SCT015 25/20 Q1008 NOSIG
15:21 VATSIM:LICJ 091350Z 05011KT 9999 SCT025 24/18 Q1012
15:21 VOICE CATALONIAN / ALMOGAVERS ROUTE
15:38 Parking Brakes off
15:55 Take-off
15:55 Take off Weight: 219287 Lbs
15:55 Wind: 081º @ 008 Knots Heading: 099º
15:55 POS N38º 16´ 53´´ W000º 33´ 11´´
15:55 Gear Up: 179 Knots
15:55 Flaps:2 at 179 Knots
15:55 Flaps:1 at 197Knots
15:56 Flaps:0 at 192 Knots
16:10 Wind:080º@028 Knots Heading: 069º Ground Speed: 467 Knots Altitude 30029 ft
16:25 Wind:112º@022 Knots Heading: 071º Ground Speed: 488 Knots Altitude 29993 ft
16:34 TOC
16:34 Fuel Weight: 22266 Lb
16:40 Wind:094º@022 Knots Heading: 076º Ground Speed: 468 Knots Altitude 30938 ft
16:55 Wind:089º@043 Knots Heading: 152º Ground Speed: 474 Knots Altitude 30925 ft
17:10 Wind:071º@077 Knots Heading: 102º Ground Speed: 425 Knots Altitude 30905 ft
17:12 TOD
17:12 Fuel Weight: 12973 Lb
17:25 Wind:108º@025 Knots Heading: 110º Ground Speed: 327 Knots Altitude 11624 ft
17:34 Flaps:1 at 259 Knots
17:35 Gear Down: 255 Knots
17:35 Flaps:2 at 254 Knots
17:36 Flaps:3 at 201 Knots
17:36 Flaps:4 at 199 Knots
17:36 Flaps:5 at 180 Knots
17:37 TouchDown:Rate -376 ft/min Speed: 139 Knots
17:37 VATSIM:LICJ 091620Z 07012KT 9999 SCT025 24/17 Q1011
17:37 Land
17:37 Wind:069º@012 Knots
17:37 Heading: 034º
17:37 Flight Duration: 01:42
17:37 Landing Weight: 195460 Lbs
17:37 POS N38º 10´ 45´´ E013º 06´ 01´´
17:40 Parking brakes on
17:40 Block to Block Duration: 02:02
17:40 Final Fuel: 9598 Lbls
17:40 Spent Fuel: 25690 Lbls
17:40 Flight Length: 720 NM
17:40 TOD Land Length: 139 NM

Exportar CSV

Powered by Drupal - Modified by Danger4k